Utah State University
, Logan
Last Weather Update:02/23/2012 7:00:00 PM
Date
ETo
ETc
Rain
Irrigation
Req
Temp
Max
Temp
Min
Temp
Avg
Avg RH
Avg Wind
Avg Solar
inches
inches
incehs
inches
F
F
F
%
%
watts/m2
01/01/2012 0.03" 0.00" 0.00" 0.00" 39.2° 19.9° 27.8° 51.6% 3.7 MPH 82.2w/m2
01/02/2012 0.03" 0.00" 0.00" 0.00" 43.2° 23.0° 32.7° 59.0% 1.1 MPH 80.1w/m2
01/03/2012 0.03" 0.00" 0.00" 0.00" 49.7° 27.6° 37.5° 50.0% 1.8 MPH 75.5w/m2
01/04/2012 0.04" 0.00" 0.00" 0.00" 46.6° 29.2° 36.7° 47.8% 3.8 MPH 76.2w/m2
01/05/2012 0.04" 0.00" 0.00" 0.00" 48.1° 27.1° 37.5° 47.9% 2.3 MPH 79.5w/m2
01/06/2012 0.03" 0.00" 0.00" 0.00" 43.1° 26.2° 33.4° 63.2% 0.8 MPH 86.0w/m2
01/07/2012 0.01" 0.00" 0.16" -0.13" 34.2° 18.4° 28.7° 84.9% 0.8 MPH 32.1w/m2
01/08/2012 0.02" 0.00" 0.00" 0.00" 31.5° 19.7° 25.6° 75.1% 1.0 MPH 52.9w/m2
01/09/2012 0.03" 0.00" 0.00" 0.00" 35.5° 20.1° 27.0° 75.9% 2.3 MPH 86.3w/m2
01/10/2012 0.02" 0.00" 0.00" 0.00" 34.9° 21.6° 28.1° 75.2% 2.1 MPH 73.4w/m2
01/11/2012 0.03" 0.00" 0.00" 0.00" 31.8° 16.6° 25.6° 54.5% 1.8 MPH 90.7w/m2
01/12/2012 0.03" 0.00" 0.00" 0.00" 29.2° 10.8° 18.6° 50.1% 3.5 MPH 93.0w/m2
01/13/2012 0.03" 0.00" 0.00" 0.00" 34.6° 14.1° 23.5° 45.3% 2.2 MPH 88.7w/m2
01/14/2012 0.03" 0.00" 0.00" 0.00" 48.8° 22.9° 32.1° 40.4% 1.2 MPH 91.7w/m2
01/15/2012 0.04" 0.00" 0.00" 0.00" 50.1° 25.0° 41.6° 25.5% 1.7 MPH 27.0w/m2
01/16/2012 0.02" 0.00" 0.07" -0.06" 25.9° 9.5° 20.4° 64.2% 1.6 MPH 43.5w/m2
01/17/2012 0.03" 0.00" 0.00" 0.00" 29.4° 8.4° 19.6° 45.3% 3.3 MPH 84.5w/m2
01/18/2012 0.03" 0.00" 0.05" -0.04" 39.3° 28.6° 34.3° 58.4% 4.9 MPH 20.7w/m2
01/19/2012 0.02" 0.00" 0.46" -0.37" 46.3° 36.7° 40.8° 79.6% 3.6 MPH 13.4w/m2
01/20/2012 0.03" 0.00" 0.12" -0.10" 46.5° 36.2° 41.9° 71.0% 1.7 MPH 50.9w/m2
01/21/2012 0.01" 0.00" 0.81" -0.65" 47.9° 32.3° 37.2° 86.7% 2.1 MPH 9.5w/m2
01/22/2012 0.03" 0.00" 0.00" 0.00" 34.7° 24.7° 30.3° 66.0% 0.8 MPH 84.9w/m2
01/23/2012 0.02" 0.00" 0.12" -0.10" 36.2° 27.8° 31.0° 79.4% 1.9 MPH 42.7w/m2
01/24/2012 0.02" 0.00" 0.00" 0.00" 32.8° 19.7° 27.2° 81.4% 1.4 MPH 72.8w/m2
01/25/2012 0.03" 0.00" 0.00" 0.00" 44.7° 24.8° 33.4° 73.3% 0.9 MPH 72.1w/m2
01/26/2012 0.01" 0.00" 0.04" -0.03" 43.2° 32.5° 37.5° 79.4% 1.7 MPH 16.8w/m2
01/27/2012 0.04" 0.00" 0.00" 0.00" 35.8° 17.9° 28.5° 58.4% 1.6 MPH 105.5w/m2
01/28/2012 0.04" 0.00" 0.00" 0.00" 34.9° 13.9° 23.2° 62.8% 2.3 MPH 107.5w/m2
01/29/2012 0.04" 0.00" 0.00" 0.00" 37.1° 21.9° 28.9° 52.3% 3.5 MPH 89.4w/m2
01/30/2012 0.03" 0.00" 0.00" 0.00" 43.1° 27.4° 32.7° 64.9% 1.9 MPH 57.2w/m2
01/31/2012 0.05" 0.00" 0.00" 0.00" 42.8° 22.5° 30.9° 64.8% 4.6 MPH 102.0w/m2
Totals: 0.88" 0.00" 1.83" -1.46" 50.1° 8.4° 30.8° 62.4% 2.2 MPH 67.4w/m2